Lecompte, LA (71346)

5:51 PM CST on March 04, 2015 (GMT -0600)
MesoWest MEEKER LA US UPR | Change Station
CLOSE
Current Station
Personal Weather Station
Location: Lecompte, LA
Elevation: 69 ft
Nearby Weather Stations
Active Advisory: Flood Warning Active Notice: Record Report

Elev 69 ft 31.12 °N, 92.41 °W | Updated 3 hours ago

Overcast
Overcast
79 °F
Feels Like 77 °F
N
Wind Variable Wind from North
Gusts 0.0 mph

Today
High -- | Low -- °F
--% Chance of Precip.
Yesterday
High -- | Low -- °F
Precip. -- in
6:33 AM 6:10 PM
Waxing Gibbous, 99% visible
Pressure 29.81 in
Visibility 10.0 miles
Clouds Mostly Cloudy 9000 ft
Heat Index 77 °F
Dew Point Not available.
Humidity Not available.
Rainfall -999.00 in
Snow Depth Not available.
UV 1 out of 12
Pollen 10.30 out of 12
Air Quality Not available.
Flu Activity Not available.
METAR KAEX 042253Z 18007KT 10SM BKN090 25/19 A2980 RMK AO2 SLP095 T02500194

More Conditions Fewer Conditions

Pressure 29.81 in
Visibility 10.0 miles
Clouds Mostly Cloudy 9000 ft
Heat Index 77 °F
Dew Point Not available.
Humidity Not available.
Rainfall -999.00 in
Snow Depth Not available.
UV 1 out of 12
Pollen 10.30 out of 12
Air Quality Not available.
Flu Activity Not available.
METAR KAEX 042253Z 18007KT 10SM BKN090 25/19 A2980 RMK AO2 SLP095 T02500194

More Conditions Fewer Conditions

10-Day Weather Forecast

Almanac

Astronomy

Mar. 04, 2015 Rise Set
Actual Time
Civil Twilight
Nautical Twilight
Astronomical Twilight
Moon
Length of Visible Light
Length of Day
Tomorrow will be .
, % of the Moon is Illuminated

Today's Extremes

State Highs State Lows

Community

WunderPhotos

Upload Photos

1,802,605 photos uploaded!

WunderBlogs® & News

Nearby

Air Quality

  Air Quality AQ Index Pollutant
Not available.

Snow Depth

Station Depth Elevation

Earthquake Activity

City Distance Mag. Time & Date
Minimum magnitude displayed is 2.5.

Coastal Water Temperatures

Place Temperature

Nearby Weather Stations

Flood Warning
Statement as of 10:36 AM CST on March 04, 2015

The Flood Warning continues for
the Calcasieu River near Glenmora.
* Until further notice... or until the warning is cancelled.
* At 9:45 am Wednesday the stage was 12.4 feet.
* Minor flooding is occurring and minor flooding is forecast.
* Flood stage is 12.0 feet.
* Forecast... the river will continue rising to near 13.0 feet by
Friday early afternoon then begin falling.
* Impact... at stages near 12.0 feet... when the river is rising and
the gauge reading is forecast to reach 12 feet or higher. Roads
upstream from Glenmora, including strothers crossing Road near the
community of Calcasieu and Price Crossing Road near Hineston have
water on them and are subject to being closed. Also, flooding of
forested areas near the river will occur.


Lat... Lon 3113 9279 3090 9269 3090 9262 3105 9265 3115 9275